Time;durP1;ratioP1;P1;durP2;ratioP2;P2;SDS_P1;SDS_P2;PMS_P1;PMS_P2;Temp;Humidity;BMP_temperature;BMP_pressure;BME280_temperature;BME280_humidity;BME280_pressure;Samples;Min_cycle;Max_cycle;Signal;HPM_P1;HPM_P2
2021/12/14 00:01:08;;;;;;;31.87;14.83;;;10.10;86.90;;;;;;4993785;28;20224;-76
2021/12/14 00:03:40;;;;;;;28.00;14.17;;;10.20;86.90;;;;;;5000539;28;20180;-76
2021/12/14 00:06:10;;;;;;;23.57;12.30;;;10.20;87.00;;;;;;4998384;28;20681;-77
2021/12/14 00:08:48;;;;;;;23.27;10.67;;;10.20;86.30;;;;;;5003848;28;20590;-76
2021/12/14 00:14:26;;;;;;;22.57;11.20;;;10.20;86.30;;;;;;4997472;28;20188;-76
2021/12/14 00:16:58;;;;;;;24.97;11.27;;;10.20;86.20;;;;;;5008954;28;20180;-77
2021/12/14 00:19:29;;;;;;;23.00;11.60;;;10.20;86.20;;;;;;5003285;28;20222;-79
2021/12/14 00:22:05;;;;;;;24.67;12.27;;;10.20;86.20;;;;;;4996601;28;20207;-77
2021/12/14 00:24:34;;;;;;;24.97;11.50;;;10.30;85.90;;;;;;4998507;28;20195;-76
2021/12/14 00:27:06;;;;;;;22.83;11.10;;;10.30;86.80;;;;;;5012155;28;20285;-77
2021/12/14 00:29:38;;;;;;;25.63;11.97;;;10.30;85.80;;;;;;4995795;28;20188;-76
2021/12/14 00:32:13;;;;;;;23.73;11.37;;;10.30;85.80;;;;;;4997747;28;20681;-76
2021/12/14 00:34:43;;;;;;;22.17;11.40;;;10.30;85.70;;;;;;5000827;28;20192;-77
2021/12/14 00:37:14;;;;;;;35.00;16.53;;;10.30;85.70;;;;;;5004800;28;20201;-76
2021/12/14 00:39:44;;;;;;;30.40;15.73;;;10.20;85.70;;;;;;5003680;28;20207;-76
2021/12/14 00:42:14;;;;;;;31.03;15.57;;;10.30;85.70;;;;;;5004851;28;20582;-77
2021/12/14 00:44:43;;;;;;;30.80;15.40;;;10.20;85.80;;;;;;4999193;28;20224;-77
2021/12/14 00:47:12;;;;;;;37.20;16.67;;;10.20;85.80;;;;;;5004197;28;20189;-76
2021/12/14 00:49:41;;;;;;;38.17;16.03;;;10.20;85.80;;;;;;5002876;28;20726;-76
2021/12/14 00:52:11;;;;;;;31.00;14.50;;;10.20;86.10;;;;;;5002800;28;20696;-77
2021/12/14 00:54:39;;;;;;;37.75;18.20;;;10.20;86.00;;;;;;4997198;28;20443;-76
2021/12/14 00:57:09;;;;;;;32.60;14.77;;;10.20;86.50;;;;;;5003703;28;20289;-76
2021/12/14 00:59:39;;;;;;;35.40;15.77;;;10.20;86.60;;;;;;4995638;28;20232;-77
2021/12/14 01:02:13;;;;;;;35.07;15.17;;;10.20;86.60;;;;;;4995450;28;20215;-76
2021/12/14 01:04:45;;;;;;;34.60;16.80;;;10.20;86.50;;;;;;4991359;28;20193;-76
2021/12/14 01:07:16;;;;;;;29.87;15.50;;;10.20;86.60;;;;;;5000972;28;20205;-76
2021/12/14 01:09:49;;;;;;;33.07;15.17;;;10.20;86.50;;;;;;5000031;28;20243;-76
2021/12/14 01:12:31;;;;;;;33.07;15.87;;;10.20;86.40;;;;;;5002506;28;20196;-76
2021/12/14 01:15:23;;;;;;;30.97;14.63;;;10.20;86.30;;;;;;5002963;28;20200;-76
2021/12/14 01:18:01;;;;;;;31.70;15.53;;;10.10;86.10;;;;;;4993212;28;20193;-76
2021/12/14 01:20:38;;;;;;;29.33;14.87;;;10.10;86.30;;;;;;4996059;28;20663;-76
2021/12/14 01:23:16;;;;;;;34.47;15.27;;;10.10;86.30;;;;;;4998466;28;20196;-76
2021/12/14 01:25:50;;;;;;;34.90;15.83;;;10.10;86.40;;;;;;5002614;28;20187;-77
2021/12/14 01:28:22;;;;;;;28.53;14.60;;;10.00;86.30;;;;;;5001256;28;20199;-77
2021/12/14 01:31:03;;;;;;;34.00;14.90;;;10.00;86.40;;;;;;4999640;28;20196;-77
2021/12/14 01:33:35;;;;;;;34.53;15.27;;;10.00;86.50;;;;;;5009327;28;20180;-76
2021/12/14 01:36:10;;;;;;;33.27;15.67;;;10.00;86.60;;;;;;5007716;28;20204;-76
2021/12/14 01:38:47;;;;;;;31.87;14.90;;;10.00;86.70;;;;;;4992156;28;20188;-76
2021/12/14 01:41:17;;;;;;;32.60;15.90;;;10.00;86.70;;;;;;4994314;28;20671;-76
2021/12/14 01:43:50;;;;;;;33.23;15.53;;;10.00;86.80;;;;;;5009879;28;20322;-76
2021/12/14 01:46:24;;;;;;;32.40;15.73;;;10.00;86.90;;;;;;5002761;28;20200;-77
2021/12/14 01:48:53;;;;;;;31.30;16.00;;;10.00;86.90;;;;;;5004506;28;20191;-77
2021/12/14 01:51:23;;;;;;;31.43;15.33;;;10.00;86.80;;;;;;4998263;28;20200;-76
2021/12/14 01:53:54;;;;;;;35.40;15.83;;;10.00;86.80;;;;;;4998476;28;20189;-76
2021/12/14 01:56:27;;;;;;;36.13;15.73;;;10.00;86.80;;;;;;4998649;28;20850;-77
2021/12/14 01:58:58;;;;;;;33.27;14.90;;;10.00;86.80;;;;;;4997674;28;20243;-76
2021/12/14 02:01:37;;;;;;;30.97;15.80;;;10.10;86.90;;;;;;4988327;28;20204;-80
2021/12/14 02:04:11;;;;;;;36.70;15.63;;;10.10;86.90;;;;;;4998766;28;20804;-76
2021/12/14 02:06:40;;;;;;;33.77;14.57;;;10.10;86.90;;;;;;5000625;28;20207;-76
2021/12/14 02:09:11;;;;;;;28.93;15.27;;;10.10;86.90;;;;;;4996533;28;20192;-76
2021/12/14 02:11:46;;;;;;;31.33;14.77;;;10.10;86.90;;;;;;4998436;28;20866;-76
2021/12/14 02:14:15;;;;;;;29.67;14.87;;;10.10;86.90;;;;;;5001698;28;20184;-76
2021/12/14 02:16:49;;;;;;;34.97;15.53;;;10.10;86.80;;;;;;5004696;28;20189;-76
2021/12/14 02:19:18;;;;;;;29.83;14.63;;;10.10;86.80;;;;;;5000209;28;20867;-77
2021/12/14 02:21:49;;;;;;;33.60;15.60;;;10.20;86.80;;;;;;4996754;28;20204;-77
2021/12/14 02:24:20;;;;;;;27.80;15.00;;;10.10;86.70;;;;;;5001598;28;20842;-76
2021/12/14 02:26:50;;;;;;;26.20;13.13;;;10.20;86.70;;;;;;4998465;28;20199;-77
2021/12/14 02:29:26;;;;;;;24.20;11.47;;;10.20;86.40;;;;;;4991463;28;20196;-76
2021/12/14 02:32:00;;;;;;;17.33;8.80;;;10.20;86.10;;;;;;5003435;28;20192;-77
2021/12/14 02:34:28;;;;;;;18.00;9.30;;;10.20;85.80;;;;;;4998694;28;20207;-77
2021/12/14 02:36:58;;;;;;;17.77;8.67;;;10.20;85.40;;;;;;4989990;28;20208;-77
2021/12/14 02:39:46;;;;;;;16.50;9.20;;;10.10;85.00;;;;;;5007789;28;20548;-77
2021/12/14 02:42:21;;;;;;;17.73;8.67;;;10.10;84.60;;;;;;4986079;28;20193;-76
2021/12/14 02:44:53;;;;;;;16.37;8.17;;;10.10;84.10;;;;;;4984401;28;20219;-76
2021/12/14 02:47:22;;;;;;;19.07;9.07;;;10.10;84.10;;;;;;5000708;28;20592;-76
2021/12/14 02:49:51;;;;;;;16.53;8.30;;;10.10;84.10;;;;;;4997855;28;20276;-76
2021/12/14 02:52:30;;;;;;;19.00;9.37;;;10.10;84.10;;;;;;4996857;28;20189;-76
2021/12/14 02:55:01;;;;;;;17.97;9.27;;;10.10;84.10;;;;;;4998790;28;20188;-77
2021/12/14 02:57:32;;;;;;;17.33;8.87;;;10.10;83.80;;;;;;5002292;28;20196;-77
2021/12/14 03:00:04;;;;;;;15.87;7.90;;;10.10;83.50;;;;;;5002816;28;20682;-76
2021/12/14 03:02:34;;;;;;;17.83;8.33;;;10.10;83.20;;;;;;5000270;28;20188;-77
2021/12/14 03:05:08;;;;;;;16.17;8.70;;;10.10;83.20;;;;;;5000910;28;20194;-77
2021/12/14 03:07:48;;;;;;;17.03;8.10;;;10.10;83.20;;;;;;4999981;28;20184;-76
2021/12/14 03:10:34;;;;;;;18.83;9.47;;;10.00;83.00;;;;;;5008537;28;20188;-76
2021/12/14 03:13:06;;;;;;;20.03;8.10;;;10.00;82.90;;;;;;5011822;28;20188;-76
2021/12/14 03:15:46;;;;;;;20.53;8.60;;;10.00;82.80;;;;;;5001547;28;20193;-77
2021/12/14 03:18:17;;;;;;;16.87;8.90;;;10.00;82.70;;;;;;4998710;28;20199;-77
2021/12/14 03:20:53;;;;;;;19.07;8.90;;;10.00;82.60;;;;;;5000443;28;20212;-76
2021/12/14 03:23:26;;;;;;;19.03;8.90;;;10.10;82.60;;;;;;5000292;28;20192;-76
2021/12/14 03:25:57;;;;;;;17.83;8.67;;;10.00;82.50;;;;;;4997132;28;20196;-76
2021/12/14 03:28:27;;;;;;;16.83;8.23;;;10.00;82.40;;;;;;4992193;28;20196;-76
2021/12/14 03:31:16;;;;;;;16.37;8.30;;;10.10;82.30;;;;;;4998349;28;20195;-76
2021/12/14 03:33:48;;;;;;;17.87;9.23;;;10.00;82.20;;;;;;5001095;28;20658;-76
2021/12/14 03:36:22;;;;;;;18.67;8.60;;;10.10;82.20;;;;;;4998512;28;20193;-76
2021/12/14 03:38:54;;;;;;;17.23;8.97;;;10.10;82.20;;;;;;4992606;28;20197;-76
2021/12/14 03:41:27;;;;;;;18.10;8.33;;;10.10;82.20;;;;;;5003402;28;20248;-77
2021/12/14 03:43:59;;;;;;;16.67;8.47;;;10.10;82.00;;;;;;5002783;28;20546;-77
2021/12/14 03:46:28;;;;;;;16.63;8.57;;;10.10;81.70;;;;;;5000439;28;20655;-78
2021/12/14 03:48:57;;;;;;;16.27;8.20;;;10.10;81.50;;;;;;4999978;28;20196;-76
2021/12/14 03:51:26;;;;;;;16.53;8.30;;;10.10;81.10;;;;;;5002810;28;20196;-79
2021/12/14 03:53:58;;;;;;;18.80;8.57;;;10.10;81.30;;;;;;4998719;28;20192;-77
2021/12/14 03:56:28;;;;;;;18.87;8.13;;;10.20;81.10;;;;;;4999304;28;20197;-76
2021/12/14 03:58:57;;;;;;;18.37;8.40;;;10.20;81.00;;;;;;5004029;28;20224;-76
2021/12/14 04:01:29;;;;;;;18.80;8.23;;;10.10;80.80;;;;;;5003314;28;20906;-76
2021/12/14 04:04:02;;;;;;;19.33;9.03;;;10.20;80.50;;;;;;4997999;28;20687;-77
2021/12/14 04:06:30;;;;;;;18.60;8.07;;;10.20;80.40;;;;;;5006800;28;20187;-76
2021/12/14 04:09:00;;;;;;;15.97;8.03;;;10.20;79.40;;;;;;5003392;28;20197;-76
2021/12/14 04:11:28;;;;;;;17.00;8.00;;;10.20;78.80;;;;;;4997815;28;20200;-76
2021/12/14 04:13:57;;;;;;;18.07;8.53;;;10.10;78.30;;;;;;5003336;28;20188;-77
2021/12/14 04:16:27;;;;;;;18.10;8.87;;;10.10;77.60;;;;;;4998116;28;20215;-76
2021/12/14 04:19:03;;;;;;;16.13;8.07;;;10.10;77.50;;;;;;5003163;28;20222;-76
2021/12/14 04:21:32;;;;;;;16.43;7.47;;;10.00;77.50;;;;;;4999178;28;20247;-76
2021/12/14 04:24:02;;;;;;;20.57;8.63;;;10.00;77.70;;;;;;5003802;28;20229;-76
2021/12/14 04:26:31;;;;;;;17.83;8.50;;;10.00;77.60;;;;;;4995659;28;20192;-76
2021/12/14 04:29:01;;;;;;;18.05;9.57;;;10.00;77.20;;;;;;5005021;28;20452;-76
2021/12/14 04:31:35;;;;;;;18.97;7.63;;;9.90;77.50;;;;;;5006750;28;20188;-76
2021/12/14 04:34:04;;;;;;;14.77;7.80;;;9.90;78.00;;;;;;5002971;28;20882;-76
2021/12/14 04:36:34;;;;;;;19.53;8.87;;;9.90;78.10;;;;;;4999218;28;20199;-76
2021/12/14 04:39:29;;;;;;;14.73;8.20;;;9.90;78.30;;;;;;4997765;28;20188;-77
2021/12/14 04:53:38;;;;;;;19.70;8.37;;;10.00;79.10;;;;;;5002676;28;20201;-76
2021/12/14 04:56:11;;;;;;;15.13;8.27;;;10.00;79.10;;;;;;5006235;28;20205;-76
2021/12/14 04:58:43;;;;;;;20.33;9.03;;;9.90;78.20;;;;;;5013010;28;20215;-76
2021/12/14 05:01:13;;;;;;;17.80;8.33;;;10.00;78.60;;;;;;5062891;28;20210;-76
2021/12/14 05:03:46;;;;;;;17.37;8.83;;;10.00;78.80;;;;;;5066153;28;20219;-76
2021/12/14 05:06:16;;;;;;;17.47;8.87;;;10.00;78.90;;;;;;5060845;28;20198;-76
2021/12/14 05:11:38;;;;;;;20.97;8.70;;;10.00;78.50;;;;;;5057501;28;20191;-75
2021/12/14 05:14:11;;;;;;;21.13;10.00;;;10.00;78.20;;;;;;5054179;28;20198;-76
2021/12/14 05:16:40;;;;;;;20.27;9.17;;;10.00;78.60;;;;;;5059586;28;20194;-77
2021/12/14 05:19:31;;;;;;;20.83;9.53;;;10.00;78.50;;;;;;5054853;28;20664;-77
2021/12/14 05:22:04;;;;;;;28.47;10.07;;;10.00;78.40;;;;;;5061256;28;20207;-77
2021/12/14 05:24:32;;;;;;;26.90;10.10;;;9.90;78.40;;;;;;5060779;28;20204;-76
2021/12/14 05:27:06;;;;;;;19.57;9.80;;;9.90;78.60;;;;;;5060262;28;20197;-76
2021/12/14 05:29:39;;;;;;;20.10;9.77;;;9.90;78.60;;;;;;5058048;28;20186;-77
2021/12/14 05:32:09;;;;;;;19.87;9.70;;;9.80;78.40;;;;;;5059755;28;20201;-78
2021/12/14 05:34:39;;;;;;;19.27;9.20;;;9.80;78.60;;;;;;5056049;28;20260;-78
2021/12/14 05:37:11;;;;;;;22.83;10.67;;;9.80;78.10;;;;;;5057278;28;20186;-77
2021/12/14 05:39:54;;;;;;;18.40;9.03;;;9.80;78.00;;;;;;5058623;28;20190;-77
2021/12/14 05:45:11;;;;;;;19.47;9.47;;;9.70;77.70;;;;;;5055845;28;20778;-77
2021/12/14 05:47:46;;;;;;;18.40;9.20;;;9.70;77.40;;;;;;5057619;28;20273;-77
2021/12/14 05:50:17;;;;;;;23.37;10.43;;;9.70;77.50;;;;;;5059060;28;20194;-78
2021/12/14 05:52:46;;;;;;;22.03;9.07;;;9.60;77.40;;;;;;5052792;28;20199;-76
2021/12/14 05:55:16;;;;;;;18.97;8.90;;;9.60;77.40;;;;;;5051697;28;20817;-76
2021/12/14 05:57:45;;;;;;;17.37;9.43;;;9.60;77.30;;;;;;5055300;28;20286;-77
2021/12/14 06:00:17;;;;;;;18.57;9.13;;;9.60;77.40;;;;;;5049179;28;21852;-76
2021/12/14 06:02:46;;;;;;;16.90;8.23;;;9.60;77.50;;;;;;5058832;28;20289;-76
2021/12/14 06:05:19;;;;;;;18.90;8.10;;;9.50;77.20;;;;;;5055892;28;20292;-77
2021/12/14 06:07:48;;;;;;;16.90;8.30;;;9.50;76.60;;;;;;5049938;28;20194;-77
2021/12/14 06:10:17;;;;;;;20.40;8.53;;;9.50;77.10;;;;;;5065281;28;20185;-76
2021/12/14 06:12:47;;;;;;;18.87;8.27;;;9.50;76.80;;;;;;5055820;28;20239;-76
2021/12/14 06:15:25;;;;;;;14.70;7.93;;;9.40;76.80;;;;;;5054880;28;20198;-76
2021/12/14 06:17:53;;;;;;;13.33;6.57;;;9.40;76.50;;;;;;5061050;28;20693;-79
2021/12/14 06:20:25;;;;;;;14.33;6.97;;;9.40;75.80;;;;;;5055474;28;20201;-77
2021/12/14 06:22:54;;;;;;;13.83;6.83;;;9.40;75.90;;;;;;5050098;28;20591;-77
2021/12/14 06:25:26;;;;;;;15.63;7.40;;;9.40;76.40;;;;;;5058030;28;20232;-83
2021/12/14 06:27:59;;;;;;;15.07;7.33;;;9.40;76.30;;;;;;5057466;28;20239;-81
2021/12/14 06:30:31;;;;;;;15.23;7.10;;;9.40;76.30;;;;;;5060131;28;20193;-78
2021/12/14 06:33:03;;;;;;;16.33;7.90;;;9.40;76.50;;;;;;5049256;28;20183;-77
2021/12/14 06:35:35;;;;;;;15.87;7.33;;;9.40;76.70;;;;;;5049779;28;20185;-77
2021/12/14 06:38:29;;;;;;;16.13;6.67;;;9.40;76.20;;;;;;5065031;28;20190;-77
2021/12/14 06:41:06;;;;;;;15.43;6.87;;;9.50;76.30;;;;;;5052808;28;20915;-77
2021/12/14 06:43:38;;;;;;;15.07;6.90;;;9.50;76.20;;;;;;5061958;28;20205;-77
2021/12/14 06:46:09;;;;;;;15.40;6.57;;;9.50;75.30;;;;;;5058088;28;20887;-77
2021/12/14 06:48:41;;;;;;;12.17;5.87;;;9.50;74.90;;;;;;5047844;28;20198;-77
2021/12/14 06:51:13;;;;;;;15.43;6.47;;;9.50;75.20;;;;;;5049051;28;20223;-77
2021/12/14 06:53:44;;;;;;;16.00;6.70;;;9.50;75.50;;;;;;5051838;28;20190;-77
2021/12/14 06:56:14;;;;;;;13.83;6.60;;;9.50;75.60;;;;;;5058001;28;20678;-77
2021/12/14 06:58:52;;;;;;;12.97;6.30;;;9.60;75.70;;;;;;5054473;28;20229;-77
2021/12/14 07:01:23;;;;;;;16.70;6.43;;;9.60;75.60;;;;;;5053791;28;20201;-78
2021/12/14 07:03:57;;;;;;;12.93;6.70;;;9.60;75.50;;;;;;5049560;28;20187;-80
2021/12/14 07:06:29;;;;;;;15.53;6.70;;;9.60;75.40;;;;;;5043801;28;20221;-77
2021/12/14 07:09:05;;;;;;;15.07;7.70;;;9.50;75.00;;;;;;5057493;28;20186;-77
2021/12/14 07:11:33;;;;;;;13.10;6.40;;;9.50;74.90;;;;;;5055269;28;20192;-77
2021/12/14 07:14:15;;;;;;;14.80;6.57;;;9.50;74.60;;;;;;5053859;28;20190;-76
2021/12/14 07:16:47;;;;;;;16.63;7.13;;;9.50;74.80;;;;;;5054288;28;20194;-76
2021/12/14 07:19:15;;;;;;;16.20;6.83;;;9.50;75.10;;;;;;5069259;28;20193;-75
2021/12/14 07:21:46;;;;;;;13.93;7.37;;;9.50;75.20;;;;;;5060135;28;20229;-76
2021/12/14 07:24:38;;;;;;;15.77;7.00;;;9.50;74.80;;;;;;5061367;28;20191;-76
2021/12/14 07:27:28;;;;;;;13.10;6.40;;;9.60;74.90;;;;;;5065660;28;20779;-77
2021/12/14 07:30:15;;;;;;;15.67;7.03;;;9.60;74.90;;;;;;5057727;28;20209;-76
2021/12/14 07:32:49;;;;;;;14.75;7.43;;;9.60;74.90;;;;;;5055030;28;20454;-76
2021/12/14 07:35:28;;;;;;;13.33;6.73;;;9.60;74.60;;;;;;5063209;28;20186;-82
2021/12/14 07:37:59;;;;;;;11.03;6.27;;;9.60;74.40;;;;;;5056978;28;20194;-80
2021/12/14 07:40:36;;;;;;;15.73;7.37;;;9.50;74.40;;;;;;5052984;28;20187;-78
2021/12/14 07:43:11;;;;;;;15.77;7.33;;;9.60;74.90;;;;;;5046223;28;20215;-76
2021/12/14 07:45:41;;;;;;;18.77;7.00;;;9.60;75.10;;;;;;5055623;28;20190;-78
2021/12/14 07:48:10;;;;;;;19.07;7.33;;;9.60;74.90;;;;;;5066975;28;20222;-78
2021/12/14 07:50:45;;;;;;;16.87;7.07;;;9.60;75.30;;;;;;5060544;28;20183;-79
2021/12/14 07:53:14;;;;;;;11.40;6.10;;;9.60;75.30;;;;;;5059313;28;20198;-78
2021/12/14 07:55:48;;;;;;;15.27;6.47;;;9.70;75.20;;;;;;5057975;28;20190;-77
2021/12/14 07:58:16;;;;;;;18.10;6.47;;;9.60;74.70;;;;;;5053729;28;20215;-79
2021/12/14 08:00:46;;;;;;;14.03;7.60;;;9.70;75.10;;;;;;5059936;28;20183;-78
2021/12/14 08:03:25;;;;;;;14.47;7.27;;;9.70;75.60;;;;;;5060169;28;20226;-77
2021/12/14 08:05:54;;;;;;;13.00;6.40;;;9.70;75.20;;;;;;5069149;28;20182;-78
2021/12/14 08:08:31;;;;;;;16.17;7.53;;;9.70;74.90;;;;;;5064710;28;20620;-78
2021/12/14 08:11:28;;;;;;;16.27;6.27;;;9.70;74.90;;;;;;5064584;28;20198;-78
2021/12/14 08:13:58;;;;;;;17.40;7.17;;;9.70;75.00;;;;;;5050167;28;20187;-77
2021/12/14 08:16:38;;;;;;;16.00;7.67;;;9.80;74.70;;;;;;5060475;28;20909;-78
2021/12/14 08:19:06;;;;;;;16.13;7.60;;;9.80;75.00;;;;;;5067920;28;20197;-78
2021/12/14 08:21:34;;;;;;;15.73;7.40;;;9.80;74.90;;;;;;5056826;28;20280;-77
2021/12/14 08:24:06;;;;;;;15.17;7.27;;;9.80;75.00;;;;;;5057777;28;20279;-79
2021/12/14 08:26:38;;;;;;;16.10;6.50;;;9.80;74.70;;;;;;5070079;28;20194;-77
2021/12/14 08:29:09;;;;;;;12.50;6.37;;;9.80;74.60;;;;;;5063953;28;20199;-78
2021/12/14 08:31:41;;;;;;;17.03;7.37;;;9.80;74.80;;;;;;5066036;28;20187;-78
2021/12/14 08:34:13;;;;;;;14.50;6.93;;;9.80;74.70;;;;;;5066244;28;20178;-78
2021/12/14 08:36:48;;;;;;;15.53;7.40;;;9.80;75.00;;;;;;5079972;28;20640;-77
2021/12/14 08:39:20;;;;;;;12.23;6.23;;;9.80;75.00;;;;;;5072618;28;20197;-78
2021/12/14 08:41:54;;;;;;;14.97;6.70;;;9.90;75.00;;;;;;5073387;28;20194;-78
2021/12/14 08:44:35;;;;;;;13.77;7.30;;;9.90;74.60;;;;;;5076068;28;20824;-78
2021/12/14 08:47:09;;;;;;;13.97;6.70;;;9.90;74.60;;;;;;5069458;28;20186;-76
2021/12/14 08:49:38;;;;;;;16.07;7.57;;;9.80;74.10;;;;;;5067649;28;21184;-77
2021/12/14 08:52:08;;;;;;;18.93;7.77;;;9.90;74.00;;;;;;5060981;28;20191;-78
2021/12/14 08:54:38;;;;;;;16.63;6.97;;;9.90;74.30;;;;;;5060812;28;20202;-78
2021/12/14 08:57:13;;;;;;;15.37;7.93;;;9.90;74.60;;;;;;5064919;28;20295;-77
2021/12/14 08:59:44;;;;;;;14.73;7.40;;;9.90;74.70;;;;;;5079002;28;20210;-77
2021/12/14 09:02:17;;;;;;;17.40;7.87;;;9.90;74.70;;;;;;5065125;28;20547;-77
2021/12/14 09:04:49;;;;;;;14.73;7.03;;;9.90;74.50;;;;;;5055970;28;20187;-77
2021/12/14 09:07:23;;;;;;;16.07;7.20;;;10.00;74.80;;;;;;5064660;28;20683;-77
2021/12/14 09:09:54;;;;;;;17.27;8.17;;;10.00;75.00;;;;;;5067767;28;20194;-76
2021/12/14 09:12:25;;;;;;;17.60;6.83;;;10.00;74.70;;;;;;5070665;28;20194;-76
2021/12/14 09:14:56;;;;;;;11.10;6.20;;;10.00;73.90;;;;;;5064457;28;20186;-76
2021/12/14 09:17:26;;;;;;;15.77;6.97;;;9.90;73.40;;;;;;5066802;28;20201;-76
2021/12/14 09:19:58;;;;;;;15.00;6.17;;;9.90;73.10;;;;;;5059810;28;20191;-75
2021/12/14 09:22:29;;;;;;;13.80;6.97;;;9.90;73.30;;;;;;5066671;28;20186;-77
2021/12/14 09:24:58;;;;;;;13.33;6.63;;;9.90;73.60;;;;;;5059659;28;20190;-76
2021/12/14 09:27:31;;;;;;;16.47;7.20;;;9.90;73.70;;;;;;5055155;28;20779;-75
2021/12/14 09:30:01;;;;;;;16.43;8.40;;;9.90;73.80;;;;;;5055026;28;20573;-76
2021/12/14 09:32:33;;;;;;;14.60;6.33;;;9.90;73.60;;;;;;5054578;28;20192;-76
2021/12/14 09:35:04;;;;;;;12.40;6.40;;;10.00;73.90;;;;;;5048104;28;20193;-76
2021/12/14 09:37:32;;;;;;;11.67;6.40;;;9.90;73.40;;;;;;5052806;28;20191;-76
2021/12/14 09:40:05;;;;;;;14.50;6.97;;;10.00;73.30;;;;;;5059856;28;20196;-77
2021/12/14 09:42:35;;;;;;;15.00;7.43;;;9.90;73.30;;;;;;5060110;28;20599;-76
2021/12/14 09:45:09;;;;;;;14.80;6.77;;;10.00;73.60;;;;;;5057620;28;20209;-76
2021/12/14 09:47:40;;;;;;;13.97;7.00;;;10.00;73.20;;;;;;5055975;28;20836;-76
2021/12/14 09:50:14;;;;;;;17.80;7.27;;;9.90;72.80;;;;;;5063767;28;20187;-75
2021/12/14 09:52:43;;;;;;;19.23;8.57;;;10.00;73.30;;;;;;5061285;28;20703;-77
2021/12/14 09:55:15;;;;;;;16.77;8.30;;;10.00;73.60;;;;;;5065228;28;20217;-76
2021/12/14 09:57:52;;;;;;;14.57;7.70;;;10.00;73.80;;;;;;5066462;28;20189;-76
2021/12/14 10:00:25;;;;;;;15.77;7.73;;;10.10;74.10;;;;;;5060818;28;20190;-77
2021/12/14 10:02:57;;;;;;;16.40;7.73;;;10.10;74.10;;;;;;5051829;28;20191;-77
2021/12/14 10:05:30;;;;;;;16.53;8.30;;;10.10;74.10;;;;;;5057057;28;20280;-75
2021/12/14 10:08:00;;;;;;;17.37;8.13;;;10.20;74.10;;;;;;5052410;28;20186;-76
2021/12/14 10:10:36;;;;;;;17.13;7.90;;;10.20;73.80;;;;;;5061821;28;20202;-76
2021/12/14 10:27:14;;;;;;;13.67;7.37;;;10.20;73.60;;;;;;5115727;27;20552;-75
2021/12/14 10:29:43;;;;;;;20.93;8.33;;;10.30;73.50;;;;;;5113853;27;20176;-76
2021/12/14 10:32:17;;;;;;;21.30;8.73;;;10.40;73.80;;;;;;5115007;27;20199;-75
2021/12/14 10:34:48;;;;;;;16.60;7.90;;;10.40;73.40;;;;;;5115168;28;20208;-76
2021/12/14 10:37:23;;;;;;;16.27;7.73;;;10.40;72.80;;;;;;5116257;28;20208;-76
2021/12/14 10:43:05;;;;;;;17.40;7.93;;;10.30;73.00;;;;;;5116227;27;20189;-76
2021/12/14 10:45:34;;;;;;;25.77;9.37;;;10.30;73.20;;;;;;5115181;27;20203;-76
2021/12/14 10:48:03;;;;;;;45.50;10.90;;;10.40;73.40;;;;;;5119979;27;20839;-76
2021/12/14 10:50:33;;;;;;;22.53;10.13;;;10.40;73.50;;;;;;5119660;27;20192;-76
2021/12/14 10:53:02;;;;;;;21.35;9.63;;;10.40;73.50;;;;;;5112224;27;21324;-77
2021/12/14 10:55:35;;;;;;;18.73;8.43;;;10.40;73.60;;;;;;5113568;28;20219;-77
2021/12/14 10:58:06;;;;;;;15.83;8.33;;;10.40;73.80;;;;;;5118332;27;20189;-76
2021/12/14 11:00:40;;;;;;;19.57;9.00;;;10.40;73.60;;;;;;5113943;27;20188;-78
2021/12/14 11:03:12;;;;;;;22.20;10.30;;;10.40;73.60;;;;;;5115478;28;20647;-77
2021/12/14 11:05:45;;;;;;;20.80;9.70;;;10.40;73.80;;;;;;5118747;27;20192;-77
2021/12/14 11:08:38;;;;;;;26.53;12.53;;;10.40;73.80;;;;;;5115905;27;20209;-77
2021/12/14 11:11:11;;;;;;;24.73;12.77;;;10.40;73.90;;;;;;5120044;27;20187;-77
2021/12/14 11:13:44;;;;;;;27.47;12.30;;;10.40;73.60;;;;;;5119561;27;20193;-78
2021/12/14 11:16:21;;;;;;;29.10;12.17;;;10.40;73.80;;;;;;5127488;27;20207;-78
2021/12/14 11:18:50;;;;;;;25.43;12.70;;;10.50;73.90;;;;;;5112181;28;20181;-78
2021/12/14 11:21:23;;;;;;;30.67;13.63;;;10.50;74.10;;;;;;5115204;27;20195;-78
2021/12/14 11:23:55;;;;;;;32.23;12.63;;;10.50;74.00;;;;;;5117177;27;20196;-77
2021/12/14 11:26:29;;;;;;;30.00;11.83;;;10.50;74.10;;;;;;5112378;27;20286;-77
2021/12/14 11:29:01;;;;;;;31.77;11.77;;;10.50;74.20;;;;;;5097408;27;20182;-78
2021/12/14 11:31:34;;;;;;;25.17;11.17;;;10.50;74.20;;;;;;5103560;28;20200;-77
2021/12/14 11:34:05;;;;;;;32.07;12.67;;;10.50;74.40;;;;;;5099474;27;20605;-78
2021/12/14 11:36:36;;;;;;;27.10;12.20;;;10.60;74.50;;;;;;5100711;28;20213;-77
2021/12/14 11:39:10;;;;;;;35.20;12.60;;;10.70;74.40;;;;;;5091154;27;20741;-77
2021/12/14 11:41:43;;;;;;;38.30;13.10;;;10.60;74.30;;;;;;5108456;27;20189;-77
2021/12/14 11:44:22;;;;;;;32.67;12.43;;;10.70;74.80;;;;;;5103615;28;20196;-77
2021/12/14 11:46:58;;;;;;;40.90;12.60;;;10.70;75.10;;;;;;5104651;28;20188;-76
2021/12/14 11:49:42;;;;;;;37.10;13.23;;;10.70;75.20;;;;;;5107005;27;20227;-77
2021/12/14 11:52:11;;;;;;;31.00;11.87;;;10.60;75.40;;;;;;5118990;27;20218;-77
2021/12/14 11:54:44;;;;;;;38.20;14.23;;;10.60;75.70;;;;;;5095134;27;20201;-77
2021/12/14 11:57:13;;;;;;;41.33;14.87;;;10.60;75.80;;;;;;5103836;28;20208;-77
2021/12/14 11:59:43;;;;;;;37.57;14.33;;;10.70;75.90;;;;;;5104092;28;20201;-77
2021/12/14 12:02:12;;;;;;;36.60;13.63;;;10.60;76.00;;;;;;5103447;28;20201;-76
2021/12/14 12:04:46;;;;;;;28.50;12.13;;;10.60;76.10;;;;;;5101535;28;20763;-77
2021/12/14 12:10:06;;;;;;;36.83;13.53;;;10.50;76.60;;;;;;5100946;28;20221;-77
2021/12/14 12:12:38;;;;;;;36.70;13.60;;;10.50;76.90;;;;;;5100364;28;20193;-76
2021/12/14 12:15:11;;;;;;;35.03;13.83;;;10.60;76.90;;;;;;5103529;28;20557;-77
2021/12/14 12:17:44;;;;;;;40.10;14.20;;;10.60;77.00;;;;;;5100107;28;20197;-76
2021/12/14 12:20:22;;;;;;;39.27;13.73;;;10.50;77.50;;;;;;5104702;27;20181;-76
2021/12/14 12:22:54;;;;;;;33.50;14.07;;;10.50;77.60;;;;;;5103802;28;20188;-76
2021/12/14 12:25:25;;;;;;;41.33;14.80;;;10.50;77.70;;;;;;5100747;28;20249;-76
2021/12/14 12:27:59;;;;;;;33.23;13.93;;;10.50;77.70;;;;;;5088642;27;20216;-76
2021/12/14 12:30:43;;;;;;;36.63;14.03;;;10.50;77.70;;;;;;5099222;28;20200;-76
2021/12/14 12:33:19;;;;;;;37.67;14.40;;;10.50;77.80;;;;;;5104170;27;20185;-76
2021/12/14 12:35:51;;;;;;;40.77;14.53;;;10.50;78.00;;;;;;5101155;28;20205;-76
2021/12/14 12:38:34;;;;;;;36.40;15.37;;;10.40;78.40;;;;;;5100249;27;20189;-76
2021/12/14 12:41:12;;;;;;;40.80;14.77;;;10.40;78.40;;;;;;5098561;28;20651;-76
2021/12/14 12:43:47;;;;;;;37.67;15.33;;;10.30;78.60;;;;;;5100879;27;20184;-76
2021/12/14 12:46:22;;;;;;;39.20;15.87;;;10.30;78.90;;;;;;5097560;27;20193;-76
2021/12/14 12:49:13;;;;;;;42.83;14.87;;;10.30;79.10;;;;;;5100130;27;20189;-76
2021/12/14 12:52:13;;;;;;;39.53;15.23;;;10.30;79.10;;;;;;5094783;28;20193;-77
2021/12/14 12:54:56;;;;;;;34.20;15.03;;;10.20;79.60;;;;;;5102174;28;20197;-76
2021/12/14 12:57:32;;;;;;;46.90;16.27;;;10.20;79.70;;;;;;5097206;28;20216;-76
2021/12/14 13:00:25;;;;;;;50.77;16.47;;;10.20;79.80;;;;;;5101401;28;20193;-75
2021/12/14 13:02:58;;;;;;;40.23;15.47;;;10.20;79.80;;;;;;5094047;27;20212;-77
2021/12/14 13:05:32;;;;;;;35.93;16.03;;;10.20;80.00;;;;;;5097999;27;20285;-76
2021/12/14 13:08:10;;;;;;;37.63;14.17;;;10.10;80.20;;;;;;5097607;28;20204;-76
2021/12/14 13:10:41;;;;;;;46.70;17.07;;;10.00;80.60;;;;;;5106795;27;20196;-75
2021/12/14 13:13:12;;;;;;;41.43;15.97;;;10.00;80.70;;;;;;5109458;27;20189;-76
2021/12/14 13:15:58;;;;;;;36.10;15.13;;;9.90;81.00;;;;;;5102038;27;20200;-76
2021/12/14 13:18:35;;;;;;;37.20;15.40;;;9.90;81.30;;;;;;5102331;28;20220;-76
2021/12/14 13:21:16;;;;;;;45.33;16.07;;;9.80;81.50;;;;;;5095433;27;20189;-76
2021/12/14 13:23:54;;;;;;;41.67;16.30;;;9.70;81.70;;;;;;5101296;28;20196;-77
2021/12/14 13:26:42;;;;;;;47.20;17.37;;;9.70;82.20;;;;;;5103313;27;20625;-76
2021/12/14 13:29:45;;;;;;;43.60;18.50;;;9.70;82.50;;;;;;5110266;27;20204;-76
2021/12/14 13:32:19;;;;;;;47.20;18.80;;;9.60;82.50;;;;;;5084634;27;20643;-76
2021/12/14 13:34:53;;;;;;;47.90;16.70;;;9.60;83.00;;;;;;5101506;27;20196;-76
2021/12/14 13:37:28;;;;;;;44.67;17.67;;;9.60;82.80;;;;;;5094308;27;20209;-76
2021/12/14 13:40:01;;;;;;;46.57;17.33;;;9.50;83.10;;;;;;5102596;27;20185;-76
2021/12/14 13:42:52;;;;;;;46.43;18.17;;;9.50;83.40;;;;;;5103094;27;20995;-76
2021/12/14 13:45:23;;;;;;;42.73;15.87;;;9.50;83.70;;;;;;5104640;27;20242;-75
2021/12/14 13:47:53;;;;;;;37.47;15.57;;;9.40;83.70;;;;;;5105283;27;20185;-77